Briefing drone pour Saint-chamond

Rechercher une autre localisation

Conditions de vol :


Nous sommes le : Mercredi 08 décembre 2021
Il est 03:38 UTC (04:39 LT)

Lever de soleil : 06:43 UTC (07:43 LT)
Coucher de soleil : 16:24 UTC (17:24 LT)

Météo

L'essentiel des conditions de vol

VIGILANCE MÉTÉO FRANCE - Loire (42)
Vigilance Jaune : Vent violent
CARTE TEMSI
CARTES DES FRONTS
METAR de LFMH
LFMH 080330Z AUTO 23007KT 190V260 9999 BKN042/// BKN048/// BKN060/// ///TCU 07/03 Q1002

Date d'émission: 08/12/2021
Heure d'émission: 03:30 UTC
Vent: 230° (variable du 190° au 260°) pour 7 KT (13 km/h)
Visibilité horizontale: > 10 km
Plafond :
- Nuages morcelés à 4200ft (1280m)
- Nuages morcelés à 4800ft (1463m)
- Nuages morcelés à 6000ft (1829m)
Température: 7 °C
Point de rosée: 3 °C
Humidité: 76%
Pression (QNH): 1002 hPa
TAF de LFMH
LFMH 161901Z 1619/1712 CNL

Conditions prévues :

Heure d'émission : Bulletin éffectué le 16 à 19:00 UTC
Prévision : Valide du 16 a 19:00 UTC au 17 a 12:00 UTC
Nuages : à 0ft (0 m)
WEBCAM POUR SAINT-CHAMOND

Réglementation

Voler en sécurité

CARTES AERONAUTIQUE 1/500.000
CARTES VAC (LFMH)
SUP AIP




Chargement des AIP...
NOTAM (SAINT-CHAMOND + Terrain à proximité / FIR )




Chargement des NOTAMS...
CONTACT PREFECTURE 42


Avertissement : Les données mises à disposition sont indicatives. Oxygène Drone ne pourra être tenu responsable de dégâts causés aux biens et aux personnes.